sensor_id;sensor_type;location;lat;lon;timestamp;pressure;altitude;pressure_sealevel;temperature;humidity
58243;BME280;50118;53.232;8.252;2022-08-25T00:01:41;101818.06;;;19.86;70.94
58243;BME280;50118;53.232;8.252;2022-08-25T00:04:17;101821.44;;;19.88;71.02
58243;BME280;50118;53.232;8.252;2022-08-25T00:06:44;101823.47;;;19.86;71.01
58243;BME280;50118;53.232;8.252;2022-08-25T00:09:13;101821.06;;;19.91;70.42
58243;BME280;50118;53.232;8.252;2022-08-25T00:11:40;101815.66;;;19.91;71.30
58243;BME280;50118;53.232;8.252;2022-08-25T00:14:11;101816.19;;;19.86;71.06
58243;BME280;50118;53.232;8.252;2022-08-25T00:16:37;101813.97;;;19.90;71.33
58243;BME280;50118;53.232;8.252;2022-08-25T00:19:07;101811.31;;;19.82;71.82
58243;BME280;50118;53.232;8.252;2022-08-25T00:21:34;101812.19;;;19.82;71.85
58243;BME280;50118;53.232;8.252;2022-08-25T00:24:00;101816.09;;;19.80;71.88
58243;BME280;50118;53.232;8.252;2022-08-25T00:26:29;101805.69;;;19.68;72.20
58243;BME280;50118;53.232;8.252;2022-08-25T00:28:55;101808.56;;;19.67;71.54
58243;BME280;50118;53.232;8.252;2022-08-25T00:31:22;101804.81;;;19.68;71.23
58243;BME280;50118;53.232;8.252;2022-08-25T00:33:49;101808.72;;;19.65;72.12
58243;BME280;50118;53.232;8.252;2022-08-25T00:36:16;101811.31;;;19.58;72.84
58243;BME280;50118;53.232;8.252;2022-08-25T00:38:43;101800.84;;;19.55;72.57
58243;BME280;50118;53.232;8.252;2022-08-25T00:41:12;101807.44;;;19.53;73.20
58243;BME280;50118;53.232;8.252;2022-08-25T00:43:49;101811.53;;;19.49;72.76
58243;BME280;50118;53.232;8.252;2022-08-25T00:46:19;101813.09;;;19.43;73.13
58243;BME280;50118;53.232;8.252;2022-08-25T00:48:49;101813.09;;;19.43;73.56
58243;BME280;50118;53.232;8.252;2022-08-25T00:51:27;101811.88;;;19.46;72.59
58243;BME280;50118;53.232;8.252;2022-08-25T00:53:54;101812.47;;;19.33;73.91
58243;BME280;50118;53.232;8.252;2022-08-25T00:56:20;101814.53;;;19.22;74.37
58243;BME280;50118;53.232;8.252;2022-08-25T00:58:56;101819.50;;;19.11;75.40
58243;BME280;50118;53.232;8.252;2022-08-25T01:01:22;101817.44;;;19.13;74.63
58243;BME280;50118;53.232;8.252;2022-08-25T01:03:48;101809.66;;;19.18;74.39
58243;BME280;50118;53.232;8.252;2022-08-25T01:06:16;101811.88;;;19.14;74.75
58243;BME280;50118;53.232;8.252;2022-08-25T01:08:42;101810.75;;;19.00;75.68
58243;BME280;50118;53.232;8.252;2022-08-25T01:17:36;101813.66;;;18.74;77.60
58243;BME280;50118;53.232;8.252;2022-08-25T01:20:12;101808.81;;;18.61;78.36
58243;BME280;50118;53.232;8.252;2022-08-25T01:22:48;101816.25;;;18.59;78.47
58243;BME280;50118;53.232;8.252;2022-08-25T01:29:14;101822.00;;;18.32;80.57
58243;BME280;50118;53.232;8.252;2022-08-25T01:38:43;101817.31;;;18.01;82.89
58243;BME280;50118;53.232;8.252;2022-08-25T01:44:38;101831.81;;;18.00;82.82
58243;BME280;50118;53.232;8.252;2022-08-25T01:50:30;101830.28;;;18.05;81.94
58243;BME280;50118;53.232;8.252;2022-08-25T02:06:42;101828.88;;;17.68;85.33
58243;BME280;50118;53.232;8.252;2022-08-25T02:12:09;101824.31;;;17.61;86.35
58243;BME280;50118;53.232;8.252;2022-08-25T02:17:54;101824.16;;;17.62;85.94
58243;BME280;50118;53.232;8.252;2022-08-25T02:23:49;101822.41;;;17.45;87.65
58243;BME280;50118;53.232;8.252;2022-08-25T02:26:15;101824.78;;;17.48;87.48
58243;BME280;50118;53.232;8.252;2022-08-25T02:28:50;101828.66;;;17.45;87.61
58243;BME280;50118;53.232;8.252;2022-08-25T02:31:28;101816.81;;;17.38;88.07
58243;BME280;50118;53.232;8.252;2022-08-25T02:40:05;101817.34;;;17.33;87.88
58243;BME280;50118;53.232;8.252;2022-08-25T02:45:51;101822.88;;;17.32;87.95
58243;BME280;50118;53.232;8.252;2022-08-25T02:48:20;101817.81;;;17.29;88.20
58243;BME280;50118;53.232;8.252;2022-08-25T02:54:18;101834.31;;;17.26;89.44
58243;BME280;50118;53.232;8.252;2022-08-25T03:00:14;101830.94;;;17.24;88.97
58243;BME280;50118;53.232;8.252;2022-08-25T03:05:42;101825.66;;;17.14;89.70
58243;BME280;50118;53.232;8.252;2022-08-25T03:08:29;101823.47;;;17.09;90.07
58243;BME280;50118;53.232;8.252;2022-08-25T03:17:15;101814.91;;;17.14;90.44
58243;BME280;50118;53.232;8.252;2022-08-25T03:20:04;101821.78;;;17.08;91.10
58243;BME280;50118;53.232;8.252;2022-08-25T03:22:33;101825.78;;;17.04;90.95
58243;BME280;50118;53.232;8.252;2022-08-25T03:46:51;101805.34;;;16.85;93.89
58243;BME280;50118;53.232;8.252;2022-08-25T03:49:38;101807.66;;;16.80;94.55
58243;BME280;50118;53.232;8.252;2022-08-25T03:58:54;101807.44;;;16.73;95.76
58243;BME280;50118;53.232;8.252;2022-08-25T04:01:29;101814.84;;;16.71;96.64
58243;BME280;50118;53.232;8.252;2022-08-25T04:03:55;101805.47;;;16.75;97.02
58243;BME280;50118;53.232;8.252;2022-08-25T04:09:26;101809.47;;;16.71;97.69
58243;BME280;50118;53.232;8.252;2022-08-25T04:11:55;101799.75;;;16.78;97.36
58243;BME280;50118;53.232;8.252;2022-08-25T04:14:28;101800.75;;;16.77;98.14
58243;BME280;50118;53.232;8.252;2022-08-25T04:17:26;101798.91;;;16.78;98.40
58243;BME280;50118;53.232;8.252;2022-08-25T04:19:51;101801.94;;;16.83;98.88
58243;BME280;50118;53.232;8.252;2022-08-25T04:22:17;101800.38;;;16.98;98.86
58243;BME280;50118;53.232;8.252;2022-08-25T04:24:44;101799.53;;;16.98;99.07
58243;BME280;50118;53.232;8.252;2022-08-25T04:33:35;101797.03;;;17.05;100.00
58243;BME280;50118;53.232;8.252;2022-08-25T04:36:00;101800.25;;;17.08;100.00
58243;BME280;50118;53.232;8.252;2022-08-25T04:48:53;101793.69;;;17.03;100.00
58243;BME280;50118;53.232;8.252;2022-08-25T04:51:21;101793.28;;;16.89;100.00
58243;BME280;50118;53.232;8.252;2022-08-25T04:54:46;101791.44;;;16.90;100.00
58243;BME280;50118;53.232;8.252;2022-08-25T04:57:17;101787.22;;;16.61;100.00
58243;BME280;50118;53.232;8.252;2022-08-25T05:00:08;101780.47;;;16.57;100.00
58243;BME280;50118;53.232;8.252;2022-08-25T05:03:04;101791.34;;;16.47;100.00
58243;BME280;50118;53.232;8.252;2022-08-25T05:08:44;101799.88;;;16.42;100.00
58243;BME280;50118;53.232;8.252;2022-08-25T05:11:33;101796.63;;;16.57;100.00
58243;BME280;50118;53.232;8.252;2022-08-25T05:14:00;101791.22;;;16.57;100.00
58243;BME280;50118;53.232;8.252;2022-08-25T05:16:29;101784.38;;;16.36;100.00
58243;BME280;50118;53.232;8.252;2022-08-25T05:18:56;101790.81;;;16.43;100.00
58243;BME280;50118;53.232;8.252;2022-08-25T05:21:26;101781.78;;;16.53;100.00
58243;BME280;50118;53.232;8.252;2022-08-25T05:24:07;101785.56;;;16.68;100.00
58243;BME280;50118;53.232;8.252;2022-08-25T05:26:38;101788.66;;;16.81;100.00
58243;BME280;50118;53.232;8.252;2022-08-25T05:29:41;101796.69;;;16.99;100.00
58243;BME280;50118;53.232;8.252;2022-08-25T05:32:06;101791.50;;;17.14;100.00
58243;BME280;50118;53.232;8.252;2022-08-25T05:34:37;101782.84;;;17.37;100.00
58243;BME280;50118;53.232;8.252;2022-08-25T05:37:15;101779.84;;;17.57;100.00
58243;BME280;50118;53.232;8.252;2022-08-25T05:39:40;101776.50;;;17.79;100.00
58243;BME280;50118;53.232;8.252;2022-08-25T05:42:06;101778.34;;;18.36;100.00
58243;BME280;50118;53.232;8.252;2022-08-25T05:44:42;101773.72;;;19.17;94.98
58243;BME280;50118;53.232;8.252;2022-08-25T05:47:07;101775.69;;;20.01;90.35
58243;BME280;50118;53.232;8.252;2022-08-25T05:49:33;101770.97;;;20.18;88.85
58243;BME280;50118;53.232;8.252;2022-08-25T05:51:58;101780.94;;;20.03;90.04
58243;BME280;50118;53.232;8.252;2022-08-25T05:54:24;101771.63;;;20.20;89.41
58243;BME280;50118;53.232;8.252;2022-08-25T05:56:49;101775.63;;;20.09;90.18
58243;BME280;50118;53.232;8.252;2022-08-25T05:59:15;101776.56;;;20.17;89.41
58243;BME280;50118;53.232;8.252;2022-08-25T06:01:41;101779.19;;;20.25;88.74
58243;BME280;50118;53.232;8.252;2022-08-25T06:04:25;101774.53;;;20.19;90.91
58243;BME280;50118;53.232;8.252;2022-08-25T06:06:50;101779.88;;;20.57;89.26
58243;BME280;50118;53.232;8.252;2022-08-25T06:09:19;101776.56;;;20.84;87.67
58243;BME280;50118;53.232;8.252;2022-08-25T06:11:46;101774.66;;;21.00;87.03
58243;BME280;50118;53.232;8.252;2022-08-25T06:14:11;101775.22;;;20.50;90.19
58243;BME280;50118;53.232;8.252;2022-08-25T06:16:37;101766.47;;;20.63;89.72
58243;BME280;50118;53.232;8.252;2022-08-25T06:19:04;101775.41;;;20.94;88.36
58243;BME280;50118;53.232;8.252;2022-08-25T06:21:29;101779.34;;;20.76;89.45
58243;BME280;50118;53.232;8.252;2022-08-25T06:23:55;101774.13;;;20.75;90.19
58243;BME280;50118;53.232;8.252;2022-08-25T06:26:23;101781.69;;;20.79;91.03
58243;BME280;50118;53.232;8.252;2022-08-25T06:28:49;101774.31;;;20.88;91.12
58243;BME280;50118;53.232;8.252;2022-08-25T06:31:15;101782.00;;;21.06;90.15
58243;BME280;50118;53.232;8.252;2022-08-25T06:33:41;101778.56;;;21.12;90.55
58243;BME280;50118;53.232;8.252;2022-08-25T06:36:07;101778.69;;;20.89;92.12
58243;BME280;50118;53.232;8.252;2022-08-25T06:38:33;101773.34;;;21.11;90.67
58243;BME280;50118;53.232;8.252;2022-08-25T06:41:02;101765.63;;;20.93;92.47
58243;BME280;50118;53.232;8.252;2022-08-25T06:43:27;101772.66;;;21.45;89.25
58243;BME280;50118;53.232;8.252;2022-08-25T06:45:53;101769.69;;;21.76;87.30
58243;BME280;50118;53.232;8.252;2022-08-25T06:50:46;101768.09;;;22.67;81.33
58243;BME280;50118;53.232;8.252;2022-08-25T06:53:12;101763.47;;;22.67;80.27
58243;BME280;50118;53.232;8.252;2022-08-25T06:55:38;101762.69;;;22.73;81.18
58243;BME280;50118;53.232;8.252;2022-08-25T06:58:03;101768.97;;;22.81;80.98
58243;BME280;50118;53.232;8.252;2022-08-25T07:00:30;101771.97;;;22.51;81.82
58243;BME280;50118;53.232;8.252;2022-08-25T07:02:56;101769.50;;;22.28;82.85
58243;BME280;50118;53.232;8.252;2022-08-25T07:05:21;101765.34;;;22.04;84.36
58243;BME280;50118;53.232;8.252;2022-08-25T07:07:47;101766.84;;;22.13;83.74
58243;BME280;50118;53.232;8.252;2022-08-25T07:10:13;101774.03;;;22.20;83.81
58243;BME280;50118;53.232;8.252;2022-08-25T07:12:39;101761.78;;;22.60;82.19
58243;BME280;50118;53.232;8.252;2022-08-25T07:15:05;101764.41;;;22.88;80.29
58243;BME280;50118;53.232;8.252;2022-08-25T07:17:30;101755.28;;;22.61;82.81
58243;BME280;50118;53.232;8.252;2022-08-25T07:19:56;101752.31;;;22.90;80.02
58243;BME280;50118;53.232;8.252;2022-08-25T07:22:21;101758.72;;;23.18;78.29
58243;BME280;50118;53.232;8.252;2022-08-25T07:24:47;101757.47;;;23.27;77.68
58243;BME280;50118;53.232;8.252;2022-08-25T07:27:13;101760.72;;;23.02;79.22
58243;BME280;50118;53.232;8.252;2022-08-25T07:29:39;101758.78;;;23.51;77.72
58243;BME280;50118;53.232;8.252;2022-08-25T07:32:05;101764.63;;;22.93;80.11
58243;BME280;50118;53.232;8.252;2022-08-25T07:34:31;101766.81;;;22.69;81.62
58243;BME280;50118;53.232;8.252;2022-08-25T07:37:15;101765.47;;;22.52;82.75
58243;BME280;50118;53.232;8.252;2022-08-25T07:39:41;101764.41;;;22.88;80.89
58243;BME280;50118;53.232;8.252;2022-08-25T07:42:07;101767.03;;;23.09;80.33
58243;BME280;50118;53.232;8.252;2022-08-25T07:44:33;101762.50;;;23.23;79.90
58243;BME280;50118;53.232;8.252;2022-08-25T07:46:59;101762.09;;;23.33;78.85
58243;BME280;50118;53.232;8.252;2022-08-25T07:49:25;101768.19;;;22.87;81.41
58243;BME280;50118;53.232;8.252;2022-08-25T07:51:52;101772.88;;;23.06;80.74
58243;BME280;50118;53.232;8.252;2022-08-25T07:54:18;101775.66;;;23.20;80.47
58243;BME280;50118;53.232;8.252;2022-08-25T07:56:44;101773.16;;;23.25;80.31
58243;BME280;50118;53.232;8.252;2022-08-25T07:59:09;101773.19;;;23.31;79.35
58243;BME280;50118;53.232;8.252;2022-08-25T08:01:35;101776.78;;;23.59;78.06
58243;BME280;50118;53.232;8.252;2022-08-25T08:04:02;101771.78;;;23.69;78.46
58243;BME280;50118;53.232;8.252;2022-08-25T08:06:28;101771.41;;;23.85;77.22
58243;BME280;50118;53.232;8.252;2022-08-25T08:08:54;101769.66;;;23.51;79.26
58243;BME280;50118;53.232;8.252;2022-08-25T08:11:22;101764.22;;;23.58;78.92
58243;BME280;50118;53.232;8.252;2022-08-25T08:13:48;101773.44;;;23.77;78.67
58243;BME280;50118;53.232;8.252;2022-08-25T08:16:16;101761.78;;;23.90;77.41
58243;BME280;50118;53.232;8.252;2022-08-25T08:18:43;101765.50;;;23.62;79.36
58243;BME280;50118;53.232;8.252;2022-08-25T08:21:18;101760.91;;;24.16;77.22
58243;BME280;50118;53.232;8.252;2022-08-25T08:23:44;101758.59;;;24.26;74.80
58243;BME280;50118;53.232;8.252;2022-08-25T08:26:10;101755.06;;;24.12;76.81
58243;BME280;50118;53.232;8.252;2022-08-25T08:28:36;101756.69;;;24.60;75.26
58243;BME280;50118;53.232;8.252;2022-08-25T08:31:02;101754.19;;;24.45;75.26
58243;BME280;50118;53.232;8.252;2022-08-25T08:33:27;101748.09;;;24.43;75.77
58243;BME280;50118;53.232;8.252;2022-08-25T08:36:02;101749.78;;;24.51;75.35
58243;BME280;50118;53.232;8.252;2022-08-25T08:38:28;101754.63;;;25.07;73.45
58243;BME280;50118;53.232;8.252;2022-08-25T08:44:08;101746.63;;;25.51;71.06
58243;BME280;50118;53.232;8.252;2022-08-25T08:49:36;101752.28;;;25.81;70.12
58243;BME280;50118;53.232;8.252;2022-08-25T08:52:04;101751.41;;;26.13;68.85
58243;BME280;50118;53.232;8.252;2022-08-25T08:54:35;101749.19;;;26.03;68.36
58243;BME280;50118;53.232;8.252;2022-08-25T08:57:13;101750.13;;;26.34;67.21
58243;BME280;50118;53.232;8.252;2022-08-25T09:00:13;101739.59;;;25.94;68.71
58243;BME280;50118;53.232;8.252;2022-08-25T09:05:16;101742.56;;;26.36;67.89
58243;BME280;50118;53.232;8.252;2022-08-25T09:07:47;101734.41;;;26.11;67.06
58243;BME280;50118;53.232;8.252;2022-08-25T09:10:16;101724.91;;;26.75;65.66
58243;BME280;50118;53.232;8.252;2022-08-25T09:12:52;101717.09;;;27.51;62.83
58243;BME280;50118;53.232;8.252;2022-08-25T09:19:27;101727.47;;;26.89;63.29
58243;BME280;50118;53.232;8.252;2022-08-25T09:21:33;101720.66;;;27.10;63.53
58243;BME280;50118;53.232;8.252;2022-08-25T09:26:38;101713.53;;;27.39;61.93
58243;BME280;50118;53.232;8.252;2022-08-25T09:29:11;101719.00;;;26.78;64.44
58243;BME280;50118;53.232;8.252;2022-08-25T09:31:41;101714.22;;;27.34;61.16
58243;BME280;50118;53.232;8.252;2022-08-25T09:34:18;101717.88;;;27.82;59.64
58243;BME280;50118;53.232;8.252;2022-08-25T09:36:44;101711.91;;;28.56;57.19
58243;BME280;50118;53.232;8.252;2022-08-25T09:39:13;101699.22;;;28.15;58.91
58243;BME280;50118;53.232;8.252;2022-08-25T09:41:48;101707.78;;;27.29;60.40
58243;BME280;50118;53.232;8.252;2022-08-25T09:44:29;101703.22;;;28.88;56.29
58243;BME280;50118;53.232;8.252;2022-08-25T09:50:01;101696.53;;;29.75;53.39
58243;BME280;50118;53.232;8.252;2022-08-25T09:54:57;101679.41;;;29.68;53.64
58243;BME280;50118;53.232;8.252;2022-08-25T10:03:13;101668.25;;;29.75;52.62
58243;BME280;50118;53.232;8.252;2022-08-25T10:08:32;101655.16;;;29.14;52.71
58243;BME280;50118;53.232;8.252;2022-08-25T10:11:01;101650.09;;;29.74;51.36
58243;BME280;50118;53.232;8.252;2022-08-25T10:13:43;101633.78;;;28.42;55.26
58243;BME280;50118;53.232;8.252;2022-08-25T10:16:21;101635.66;;;29.28;53.21
58243;BME280;50118;53.232;8.252;2022-08-25T10:21:28;101633.31;;;29.87;50.97
58243;BME280;50118;53.232;8.252;2022-08-25T10:23:54;101628.31;;;31.00;47.83
58243;BME280;50118;53.232;8.252;2022-08-25T10:32:23;101624.53;;;31.06;46.77
58243;BME280;50118;53.232;8.252;2022-08-25T10:34:55;101611.25;;;31.68;44.96
58243;BME280;50118;53.232;8.252;2022-08-25T10:40:27;101613.41;;;30.19;49.34
58243;BME280;50118;53.232;8.252;2022-08-25T10:43:05;101605.84;;;29.70;49.92
58243;BME280;50118;53.232;8.252;2022-08-25T10:45:40;101602.53;;;29.00;52.36
58243;BME280;50118;53.232;8.252;2022-08-25T10:56:30;101590.06;;;29.77;49.59
58243;BME280;50118;53.232;8.252;2022-08-25T11:07:44;101581.69;;;30.33;46.98
58243;BME280;50118;53.232;8.252;2022-08-25T11:10:14;101572.47;;;29.39;50.03
58243;BME280;50118;53.232;8.252;2022-08-25T11:12:44;101567.13;;;29.50;49.66
58243;BME280;50118;53.232;8.252;2022-08-25T11:15:28;101562.47;;;29.50;50.31
58243;BME280;50118;53.232;8.252;2022-08-25T11:18:02;101556.59;;;30.25;48.32
58243;BME280;50118;53.232;8.252;2022-08-25T11:23:27;101568.47;;;29.30;49.57
58243;BME280;50118;53.232;8.252;2022-08-25T11:26:13;101554.19;;;30.56;47.12
58243;BME280;50118;53.232;8.252;2022-08-25T11:29:10;101565.97;;;29.12;50.02
58243;BME280;50118;53.232;8.252;2022-08-25T11:31:39;101553.75;;;28.85;50.11
58243;BME280;50118;53.232;8.252;2022-08-25T11:34:12;101547.47;;;28.56;51.41
58243;BME280;50118;53.232;8.252;2022-08-25T11:36:41;101541.41;;;29.17;49.99
58243;BME280;50118;53.232;8.252;2022-08-25T11:41:49;101542.28;;;29.05;48.26
58243;BME280;50118;53.232;8.252;2022-08-25T11:51:59;101529.88;;;30.20;42.94
58243;BME280;50118;53.232;8.252;2022-08-25T11:54:34;101534.44;;;30.59;43.22
58243;BME280;50118;53.232;8.252;2022-08-25T11:57:15;101515.84;;;30.71;42.42
58243;BME280;50118;53.232;8.252;2022-08-25T12:11:00;101507.88;;;32.13;37.56
58243;BME280;50118;53.232;8.252;2022-08-25T12:16:04;101497.78;;;32.70;38.81
58243;BME280;50118;53.232;8.252;2022-08-25T12:23:33;101505.13;;;32.13;38.01
58243;BME280;50118;53.232;8.252;2022-08-25T12:26:03;101494.72;;;32.56;37.10
58243;BME280;50118;53.232;8.252;2022-08-25T12:28:45;101493.09;;;32.75;36.20
58243;BME280;50118;53.232;8.252;2022-08-25T12:32:03;101498.31;;;32.82;35.31
58243;BME280;50118;53.232;8.252;2022-08-25T12:34:31;101489.75;;;33.04;35.24
58243;BME280;50118;53.232;8.252;2022-08-25T12:37:16;101490.81;;;33.39;34.79
58243;BME280;50118;53.232;8.252;2022-08-25T12:40:03;101476.72;;;33.30;33.65
58243;BME280;50118;53.232;8.252;2022-08-25T12:42:40;101487.97;;;31.90;37.11
58243;BME280;50118;53.232;8.252;2022-08-25T12:47:50;101484.06;;;31.71;36.46
58243;BME280;50118;53.232;8.252;2022-08-25T12:56:07;101473.22;;;32.48;35.83
58243;BME280;50118;53.232;8.252;2022-08-25T12:58:46;101471.59;;;32.62;36.10
58243;BME280;50118;53.232;8.252;2022-08-25T13:07:40;101460.00;;;32.65;35.57
58243;BME280;50118;53.232;8.252;2022-08-25T13:15:24;101455.06;;;31.05;38.98
58243;BME280;50118;53.232;8.252;2022-08-25T13:17:50;101453.47;;;31.14;38.81
58243;BME280;50118;53.232;8.252;2022-08-25T13:20:26;101444.69;;;31.22;38.46
58243;BME280;50118;53.232;8.252;2022-08-25T13:22:56;101445.44;;;31.50;38.17
58243;BME280;50118;53.232;8.252;2022-08-25T13:25:26;101448.25;;;31.65;38.38
58243;BME280;50118;53.232;8.252;2022-08-25T13:27:56;101444.44;;;31.97;37.02
58243;BME280;50118;53.232;8.252;2022-08-25T13:30:26;101440.06;;;32.01;37.34
58243;BME280;50118;53.232;8.252;2022-08-25T13:32:51;101435.63;;;31.85;37.04
58243;BME280;50118;53.232;8.252;2022-08-25T13:35:21;101436.94;;;30.12;40.92
58243;BME280;50118;53.232;8.252;2022-08-25T13:37:48;101440.47;;;30.99;39.38
58243;BME280;50118;53.232;8.252;2022-08-25T13:42:47;101426.66;;;29.97;41.37
58243;BME280;50118;53.232;8.252;2022-08-25T13:45:19;101426.53;;;29.87;41.82
58243;BME280;50118;53.232;8.252;2022-08-25T13:47:46;101419.47;;;30.23;41.18
58243;BME280;50118;53.232;8.252;2022-08-25T13:52:52;101410.38;;;30.87;39.84
58243;BME280;50118;53.232;8.252;2022-08-25T13:55:25;101409.81;;;30.85;39.64
58243;BME280;50118;53.232;8.252;2022-08-25T13:57:53;101407.38;;;31.37;39.50
58243;BME280;50118;53.232;8.252;2022-08-25T14:00:44;101407.03;;;30.43;40.14
58243;BME280;50118;53.232;8.252;2022-08-25T14:03:28;101406.31;;;30.95;39.20
58243;BME280;50118;53.232;8.252;2022-08-25T14:06:04;101401.41;;;30.65;39.64
58243;BME280;50118;53.232;8.252;2022-08-25T14:08:38;101400.50;;;30.54;40.06
58243;BME280;50118;53.232;8.252;2022-08-25T14:11:08;101394.56;;;29.31;43.27
58243;BME280;50118;53.232;8.252;2022-08-25T14:13:34;101400.69;;;29.38;44.21
58243;BME280;50118;53.232;8.252;2022-08-25T14:16:12;101385.69;;;29.68;44.46
58243;BME280;50118;53.232;8.252;2022-08-25T14:18:45;101395.56;;;29.69;43.93
58243;BME280;50118;53.232;8.252;2022-08-25T14:21:13;101390.31;;;29.01;46.40
58243;BME280;50118;53.232;8.252;2022-08-25T14:23:39;101393.25;;;29.34;46.32
58243;BME280;50118;53.232;8.252;2022-08-25T14:26:05;101390.22;;;29.35;46.07
58243;BME280;50118;53.232;8.252;2022-08-25T14:28:30;101383.16;;;29.17;46.66
58243;BME280;50118;53.232;8.252;2022-08-25T14:31:08;101376.66;;;29.23;46.74
58243;BME280;50118;53.232;8.252;2022-08-25T14:33:42;101366.50;;;29.24;47.03
58243;BME280;50118;53.232;8.252;2022-08-25T14:36:08;101364.97;;;29.33;47.33
58243;BME280;50118;53.232;8.252;2022-08-25T14:38:34;101372.78;;;29.69;47.01
58243;BME280;50118;53.232;8.252;2022-08-25T14:41:03;101363.56;;;29.53;46.59
58243;BME280;50118;53.232;8.252;2022-08-25T14:43:28;101364.78;;;29.89;45.64
58243;BME280;50118;53.232;8.252;2022-08-25T14:45:54;101365.97;;;29.98;45.80
58243;BME280;50118;53.232;8.252;2022-08-25T14:48:25;101358.47;;;29.67;47.14
58243;BME280;50118;53.232;8.252;2022-08-25T14:50:54;101363.91;;;29.84;47.09
58243;BME280;50118;53.232;8.252;2022-08-25T14:53:20;101361.72;;;29.86;46.63
58243;BME280;50118;53.232;8.252;2022-08-25T14:55:45;101369.16;;;29.63;47.06
58243;BME280;50118;53.232;8.252;2022-08-25T14:58:11;101353.59;;;29.74;46.90
58243;BME280;50118;53.232;8.252;2022-08-25T15:00:40;101363.22;;;29.71;45.63
58243;BME280;50118;53.232;8.252;2022-08-25T15:03:06;101356.31;;;29.69;46.12
58243;BME280;50118;53.232;8.252;2022-08-25T15:05:31;101353.81;;;29.18;47.86
58243;BME280;50118;53.232;8.252;2022-08-25T15:07:57;101342.22;;;29.16;47.67
58243;BME280;50118;53.232;8.252;2022-08-25T15:10:41;101340.78;;;28.91;47.99
58243;BME280;50118;53.232;8.252;2022-08-25T15:13:06;101337.34;;;28.79;48.20
58243;BME280;50118;53.232;8.252;2022-08-25T15:15:37;101338.78;;;29.03;47.94
58243;BME280;50118;53.232;8.252;2022-08-25T15:18:03;101341.66;;;29.14;47.88
58243;BME280;50118;53.232;8.252;2022-08-25T15:20:29;101329.75;;;29.25;47.95
58243;BME280;50118;53.232;8.252;2022-08-25T15:22:54;101328.97;;;29.08;48.08
58243;BME280;50118;53.232;8.252;2022-08-25T15:25:20;101329.47;;;29.27;48.57
58243;BME280;50118;53.232;8.252;2022-08-25T15:27:47;101323.34;;;29.41;48.41
58243;BME280;50118;53.232;8.252;2022-08-25T15:30:13;101327.81;;;29.48;48.52
58243;BME280;50118;53.232;8.252;2022-08-25T15:32:39;101321.59;;;29.57;48.28
58243;BME280;50118;53.232;8.252;2022-08-25T15:35:05;101321.91;;;29.12;48.76
58243;BME280;50118;53.232;8.252;2022-08-25T15:37:31;101328.44;;;29.11;49.49
58243;BME280;50118;53.232;8.252;2022-08-25T15:39:56;101319.81;;;29.19;48.43
58243;BME280;50118;53.232;8.252;2022-08-25T15:42:22;101314.88;;;29.21;47.77
58243;BME280;50118;53.232;8.252;2022-08-25T15:44:48;101318.47;;;29.21;48.56
58243;BME280;50118;53.232;8.252;2022-08-25T15:47:14;101317.84;;;28.97;49.02
58243;BME280;50118;53.232;8.252;2022-08-25T15:49:39;101307.31;;;28.67;49.84
58243;BME280;50118;53.232;8.252;2022-08-25T15:52:04;101312.53;;;28.68;49.94
58243;BME280;50118;53.232;8.252;2022-08-25T15:54:30;101313.25;;;28.81;49.31
58243;BME280;50118;53.232;8.252;2022-08-25T15:56:57;101311.75;;;28.90;49.17
58243;BME280;50118;53.232;8.252;2022-08-25T15:59:24;101312.84;;;28.72;49.41
58243;BME280;50118;53.232;8.252;2022-08-25T16:01:49;101303.81;;;28.72;49.59
58243;BME280;50118;53.232;8.252;2022-08-25T16:04:18;101304.31;;;28.68;49.16
58243;BME280;50118;53.232;8.252;2022-08-25T16:06:43;101300.13;;;28.83;49.05
58243;BME280;50118;53.232;8.252;2022-08-25T16:09:09;101303.91;;;28.43;50.13
58243;BME280;50118;53.232;8.252;2022-08-25T16:11:34;101307.47;;;28.60;49.86
58243;BME280;50118;53.232;8.252;2022-08-25T16:14:02;101310.16;;;28.55;49.79
58243;BME280;50118;53.232;8.252;2022-08-25T16:16:29;101309.16;;;28.44;50.18
58243;BME280;50118;53.232;8.252;2022-08-25T16:18:55;101304.34;;;28.35;49.70
58243;BME280;50118;53.232;8.252;2022-08-25T16:21:26;101291.41;;;28.30;50.19
58243;BME280;50118;53.232;8.252;2022-08-25T16:23:53;101292.72;;;28.27;50.65
58243;BME280;50118;53.232;8.252;2022-08-25T16:26:20;101292.72;;;28.61;49.63
58243;BME280;50118;53.232;8.252;2022-08-25T16:28:46;101293.34;;;28.68;49.75
58243;BME280;50118;53.232;8.252;2022-08-25T16:31:13;101288.38;;;28.65;50.04
58243;BME280;50118;53.232;8.252;2022-08-25T16:33:39;101282.66;;;28.50;50.60
58243;BME280;50118;53.232;8.252;2022-08-25T16:36:06;101284.25;;;28.46;51.01
58243;BME280;50118;53.232;8.252;2022-08-25T16:38:32;101281.44;;;28.41;50.80
58243;BME280;50118;53.232;8.252;2022-08-25T16:40:57;101284.88;;;28.53;50.33
58243;BME280;50118;53.232;8.252;2022-08-25T16:43:23;101273.47;;;28.56;50.29
58243;BME280;50118;53.232;8.252;2022-08-25T16:45:59;101274.28;;;28.40;50.68
58243;BME280;50118;53.232;8.252;2022-08-25T16:48:26;101276.38;;;28.32;50.86
58243;BME280;50118;53.232;8.252;2022-08-25T16:50:51;101287.09;;;28.34;50.94
58243;BME280;50118;53.232;8.252;2022-08-25T16:53:17;101275.16;;;28.23;51.38
58243;BME280;50118;53.232;8.252;2022-08-25T16:56:02;101272.41;;;28.23;51.36
58243;BME280;50118;53.232;8.252;2022-08-25T16:58:28;101277.28;;;28.21;51.28
58243;BME280;50118;53.232;8.252;2022-08-25T17:00:54;101273.16;;;28.19;51.53
58243;BME280;50118;53.232;8.252;2022-08-25T17:03:19;101271.50;;;28.01;51.91
58243;BME280;50118;53.232;8.252;2022-08-25T17:05:44;101263.19;;;27.95;52.75
58243;BME280;50118;53.232;8.252;2022-08-25T17:08:10;101272.97;;;27.91;52.74